aviador You're here:

KRMG Decoded Metar

ROME in GA, USA
Report Time2017-11-20 04:53:00
UTC Time2017-11-20 05:36:23
Flight Rules vfr VFR
Wind340° at 04 kt
W.Decomp.*RWY 01: 3.5 kt HW 1.9 kt LCW
RWY 07: 0.1 kt HW 4 kt LCW
W.Rank340° ranks 4
Current wind is below 340° avg. (6.6)
Visibility9999 m
Phenomena:N/A
Clouds:N/A
Expected CloudBase > 2,800 ft AGL from Temp-Dew spread
CeilingNone
Temp04°C (ISA -10)
Dew Point-3°C (61% RH)
AAT0.2°C
QNH1022 hPa
Density Alt-781 ft
Elevation633 ft
Report Wrong Elevation
Raw Report
KRMG 200453Z AUTO 34004KT 10SM CLR 04/M03 A3019 RMK AO2 SLP220
T00391033 401220033=

Extra information for KRMG:More info

Metar Taf Metar & Taf Last 4 Metars F.Rules Stats Wind Profile Meteogram Temp Stats Airport Information Weather charts Add Link Nearby VenuesMetar ALERT Operation Metar Decoded Social comments

AIRNAV info for KRMG